sensor_id;sensor_type;location;lat;lon;timestamp;P1;durP1;ratioP1;P2;durP2;ratioP2
11228;SDS011;5671;47.936;8.716;2022-09-09T00:00:55;2.87;;;1.23;;
11228;SDS011;5671;47.936;8.716;2022-09-09T00:03:47;2.83;;;1.20;;
11228;SDS011;5671;47.936;8.716;2022-09-09T00:06:24;5.57;;;1.20;;
11228;SDS011;5671;47.936;8.716;2022-09-09T00:09:16;3.77;;;0.70;;
11228;SDS011;5671;47.936;8.716;2022-09-09T00:11:51;7.70;;;1.30;;
11228;SDS011;5671;47.936;8.716;2022-09-09T00:14:23;4.73;;;0.80;;
11228;SDS011;5671;47.936;8.716;2022-09-09T00:17:04;4.50;;;1.00;;
11228;SDS011;5671;47.936;8.716;2022-09-09T00:19:37;4.60;;;0.70;;
11228;SDS011;5671;47.936;8.716;2022-09-09T00:22:12;4.07;;;0.80;;
11228;SDS011;5671;47.936;8.716;2022-09-09T00:24:46;2.00;;;0.50;;
11228;SDS011;5671;47.936;8.716;2022-09-09T00:27:24;2.03;;;0.87;;
11228;SDS011;5671;47.936;8.716;2022-09-09T00:30:15;2.23;;;0.70;;
11228;SDS011;5671;47.936;8.716;2022-09-09T00:32:49;2.07;;;0.90;;
11228;SDS011;5671;47.936;8.716;2022-09-09T00:35:37;2.67;;;0.80;;
11228;SDS011;5671;47.936;8.716;2022-09-09T00:38:09;1.23;;;0.50;;
11228;SDS011;5671;47.936;8.716;2022-09-09T00:40:41;2.53;;;0.67;;
11228;SDS011;5671;47.936;8.716;2022-09-09T00:43:24;2.30;;;0.70;;
11228;SDS011;5671;47.936;8.716;2022-09-09T00:48:52;3.23;;;1.30;;
11228;SDS011;5671;47.936;8.716;2022-09-09T00:51:38;7.47;;;1.63;;
11228;SDS011;5671;47.936;8.716;2022-09-09T00:54:22;2.20;;;0.60;;
11228;SDS011;5671;47.936;8.716;2022-09-09T00:57:22;5.10;;;0.63;;
11228;SDS011;5671;47.936;8.716;2022-09-09T00:59:57;4.27;;;0.97;;
11228;SDS011;5671;47.936;8.716;2022-09-09T01:02:32;2.47;;;0.80;;
11228;SDS011;5671;47.936;8.716;2022-09-09T01:05:11;3.00;;;0.57;;
11228;SDS011;5671;47.936;8.716;2022-09-09T01:07:44;4.60;;;0.70;;
11228;SDS011;5671;47.936;8.716;2022-09-09T01:10:17;5.40;;;0.80;;
11228;SDS011;5671;47.936;8.716;2022-09-09T01:12:55;2.33;;;0.80;;
11228;SDS011;5671;47.936;8.716;2022-09-09T01:15:27;3.67;;;0.90;;
11228;SDS011;5671;47.936;8.716;2022-09-09T01:17:58;3.17;;;0.50;;
11228;SDS011;5671;47.936;8.716;2022-09-09T01:20:45;2.80;;;0.73;;
11228;SDS011;5671;47.936;8.716;2022-09-09T01:23:26;2.43;;;0.93;;
11228;SDS011;5671;47.936;8.716;2022-09-09T01:26:18;3.47;;;1.20;;
11228;SDS011;5671;47.936;8.716;2022-09-09T01:29:13;1.23;;;0.77;;
11228;SDS011;5671;47.936;8.716;2022-09-09T01:32:01;1.33;;;0.93;;
11228;SDS011;5671;47.936;8.716;2022-09-09T01:35:09;2.57;;;0.90;;
11228;SDS011;5671;47.936;8.716;2022-09-09T01:38:16;2.33;;;0.87;;
11228;SDS011;5671;47.936;8.716;2022-09-09T01:40:57;5.07;;;1.40;;
11228;SDS011;5671;47.936;8.716;2022-09-09T01:43:28;3.40;;;0.90;;
11228;SDS011;5671;47.936;8.716;2022-09-09T01:48:48;2.80;;;0.93;;
11228;SDS011;5671;47.936;8.716;2022-09-09T01:51:20;1.47;;;0.40;;
11228;SDS011;5671;47.936;8.716;2022-09-09T01:53:50;2.00;;;0.90;;
11228;SDS011;5671;47.936;8.716;2022-09-09T01:56:31;3.00;;;1.10;;
11228;SDS011;5671;47.936;8.716;2022-09-09T01:59:21;3.50;;;1.20;;
11228;SDS011;5671;47.936;8.716;2022-09-09T02:02:06;2.40;;;0.80;;
11228;SDS011;5671;47.936;8.716;2022-09-09T02:04:40;3.20;;;0.90;;
11228;SDS011;5671;47.936;8.716;2022-09-09T02:07:23;3.40;;;0.77;;
11228;SDS011;5671;47.936;8.716;2022-09-09T02:10:09;6.40;;;1.13;;
11228;SDS011;5671;47.936;8.716;2022-09-09T02:12:39;3.23;;;1.10;;
11228;SDS011;5671;47.936;8.716;2022-09-09T02:15:16;0.83;;;0.83;;
11228;SDS011;5671;47.936;8.716;2022-09-09T02:18:01;2.00;;;0.80;;
11228;SDS011;5671;47.936;8.716;2022-09-09T02:20:33;2.33;;;1.00;;
11228;SDS011;5671;47.936;8.716;2022-09-09T02:23:01;1.40;;;0.90;;
11228;SDS011;5671;47.936;8.716;2022-09-09T02:25:30;2.13;;;1.00;;
11228;SDS011;5671;47.936;8.716;2022-09-09T02:27:58;2.60;;;1.10;;
11228;SDS011;5671;47.936;8.716;2022-09-09T02:30:27;4.13;;;1.10;;
11228;SDS011;5671;47.936;8.716;2022-09-09T02:32:56;3.67;;;1.23;;
11228;SDS011;5671;47.936;8.716;2022-09-09T02:35:27;2.90;;;1.30;;
11228;SDS011;5671;47.936;8.716;2022-09-09T02:37:56;2.57;;;1.00;;
11228;SDS011;5671;47.936;8.716;2022-09-09T02:40:26;7.73;;;1.20;;
11228;SDS011;5671;47.936;8.716;2022-09-09T02:42:53;6.10;;;0.77;;
11228;SDS011;5671;47.936;8.716;2022-09-09T02:45:23;2.10;;;1.10;;
11228;SDS011;5671;47.936;8.716;2022-09-09T02:47:56;3.40;;;1.00;;
11228;SDS011;5671;47.936;8.716;2022-09-09T02:50:30;4.80;;;1.10;;
11228;SDS011;5671;47.936;8.716;2022-09-09T02:53:02;2.87;;;1.17;;
11228;SDS011;5671;47.936;8.716;2022-09-09T02:55:37;2.00;;;1.03;;
11228;SDS011;5671;47.936;8.716;2022-09-09T02:58:08;4.20;;;1.10;;
11228;SDS011;5671;47.936;8.716;2022-09-09T03:00:38;2.73;;;1.00;;
11228;SDS011;5671;47.936;8.716;2022-09-09T03:03:07;3.73;;;1.10;;
11228;SDS011;5671;47.936;8.716;2022-09-09T03:05:35;4.20;;;1.00;;
11228;SDS011;5671;47.936;8.716;2022-09-09T03:08:02;3.57;;;0.97;;
11228;SDS011;5671;47.936;8.716;2022-09-09T03:10:29;4.93;;;1.00;;
11228;SDS011;5671;47.936;8.716;2022-09-09T03:12:56;3.10;;;1.10;;
11228;SDS011;5671;47.936;8.716;2022-09-09T03:15:23;2.83;;;1.13;;
11228;SDS011;5671;47.936;8.716;2022-09-09T03:17:55;1.53;;;0.73;;
11228;SDS011;5671;47.936;8.716;2022-09-09T03:20:23;3.67;;;0.97;;
11228;SDS011;5671;47.936;8.716;2022-09-09T03:22:51;3.40;;;1.10;;
11228;SDS011;5671;47.936;8.716;2022-09-09T03:25:18;1.47;;;0.90;;
11228;SDS011;5671;47.936;8.716;2022-09-09T03:27:46;4.70;;;1.07;;
11228;SDS011;5671;47.936;8.716;2022-09-09T03:30:13;4.10;;;1.07;;
11228;SDS011;5671;47.936;8.716;2022-09-09T03:32:40;1.33;;;0.83;;
11228;SDS011;5671;47.936;8.716;2022-09-09T03:35:07;2.93;;;1.00;;
11228;SDS011;5671;47.936;8.716;2022-09-09T03:37:36;3.50;;;0.93;;
11228;SDS011;5671;47.936;8.716;2022-09-09T03:40:04;3.07;;;0.70;;
11228;SDS011;5671;47.936;8.716;2022-09-09T03:42:31;6.07;;;1.30;;
11228;SDS011;5671;47.936;8.716;2022-09-09T03:44:58;2.43;;;0.90;;
11228;SDS011;5671;47.936;8.716;2022-09-09T03:47:27;2.63;;;0.90;;
11228;SDS011;5671;47.936;8.716;2022-09-09T03:49:55;1.60;;;0.73;;
11228;SDS011;5671;47.936;8.716;2022-09-09T03:52:21;1.13;;;0.63;;
11228;SDS011;5671;47.936;8.716;2022-09-09T03:54:52;2.93;;;0.87;;
11228;SDS011;5671;47.936;8.716;2022-09-09T03:57:20;1.03;;;0.77;;
11228;SDS011;5671;47.936;8.716;2022-09-09T03:59:47;1.13;;;1.00;;
11228;SDS011;5671;47.936;8.716;2022-09-09T04:02:14;3.53;;;1.30;;
11228;SDS011;5671;47.936;8.716;2022-09-09T04:04:41;6.23;;;1.43;;
11228;SDS011;5671;47.936;8.716;2022-09-09T04:07:08;1.87;;;1.07;;
11228;SDS011;5671;47.936;8.716;2022-09-09T04:09:35;2.97;;;0.97;;
11228;SDS011;5671;47.936;8.716;2022-09-09T04:12:03;2.90;;;1.03;;
11228;SDS011;5671;47.936;8.716;2022-09-09T04:14:31;1.77;;;0.90;;
11228;SDS011;5671;47.936;8.716;2022-09-09T04:16:58;0.97;;;0.77;;
11228;SDS011;5671;47.936;8.716;2022-09-09T04:19:31;1.00;;;0.80;;
11228;SDS011;5671;47.936;8.716;2022-09-09T04:21:58;8.67;;;1.10;;
11228;SDS011;5671;47.936;8.716;2022-09-09T04:24:25;4.73;;;1.10;;
11228;SDS011;5671;47.936;8.716;2022-09-09T04:26:52;1.87;;;0.90;;
11228;SDS011;5671;47.936;8.716;2022-09-09T04:29:20;0.70;;;0.70;;
11228;SDS011;5671;47.936;8.716;2022-09-09T04:31:47;6.37;;;1.30;;
11228;SDS011;5671;47.936;8.716;2022-09-09T04:34:14;1.97;;;0.93;;
11228;SDS011;5671;47.936;8.716;2022-09-09T04:36:41;2.47;;;1.10;;
11228;SDS011;5671;47.936;8.716;2022-09-09T04:39:23;3.03;;;1.20;;
11228;SDS011;5671;47.936;8.716;2022-09-09T04:41:51;1.60;;;0.90;;
11228;SDS011;5671;47.936;8.716;2022-09-09T04:44:18;2.20;;;1.03;;
11228;SDS011;5671;47.936;8.716;2022-09-09T04:46:46;2.27;;;1.10;;
11228;SDS011;5671;47.936;8.716;2022-09-09T04:49:13;3.63;;;1.13;;
11228;SDS011;5671;47.936;8.716;2022-09-09T04:51:40;3.93;;;0.90;;
11228;SDS011;5671;47.936;8.716;2022-09-09T04:54:07;5.10;;;1.63;;
11228;SDS011;5671;47.936;8.716;2022-09-09T04:56:37;3.37;;;1.00;;
11228;SDS011;5671;47.936;8.716;2022-09-09T04:59:04;4.27;;;1.40;;
11228;SDS011;5671;47.936;8.716;2022-09-09T05:01:30;2.90;;;1.60;;
11228;SDS011;5671;47.936;8.716;2022-09-09T05:03:59;1.20;;;1.10;;
11228;SDS011;5671;47.936;8.716;2022-09-09T05:06:26;7.40;;;1.13;;
11228;SDS011;5671;47.936;8.716;2022-09-09T05:08:54;4.27;;;1.27;;
11228;SDS011;5671;47.936;8.716;2022-09-09T05:11:22;3.27;;;1.27;;
11228;SDS011;5671;47.936;8.716;2022-09-09T05:13:50;1.57;;;1.07;;
11228;SDS011;5671;47.936;8.716;2022-09-09T05:16:18;2.63;;;1.43;;
11228;SDS011;5671;47.936;8.716;2022-09-09T05:18:46;5.00;;;1.37;;
11228;SDS011;5671;47.936;8.716;2022-09-09T05:21:15;4.53;;;1.27;;
11228;SDS011;5671;47.936;8.716;2022-09-09T05:23:44;4.97;;;1.43;;
11228;SDS011;5671;47.936;8.716;2022-09-09T05:26:12;1.87;;;1.47;;
11228;SDS011;5671;47.936;8.716;2022-09-09T05:28:41;2.97;;;1.37;;
11228;SDS011;5671;47.936;8.716;2022-09-09T05:31:09;3.10;;;1.00;;
11228;SDS011;5671;47.936;8.716;2022-09-09T05:33:38;3.43;;;1.10;;
11228;SDS011;5671;47.936;8.716;2022-09-09T05:36:06;3.33;;;1.10;;
11228;SDS011;5671;47.936;8.716;2022-09-09T05:38:37;2.23;;;1.30;;
11228;SDS011;5671;47.936;8.716;2022-09-09T05:41:04;2.13;;;1.30;;
11228;SDS011;5671;47.936;8.716;2022-09-09T05:43:31;2.07;;;1.37;;
11228;SDS011;5671;47.936;8.716;2022-09-09T05:45:58;2.07;;;1.23;;
11228;SDS011;5671;47.936;8.716;2022-09-09T05:48:28;8.43;;;1.30;;
11228;SDS011;5671;47.936;8.716;2022-09-09T05:50:56;3.03;;;1.10;;
11228;SDS011;5671;47.936;8.716;2022-09-09T05:53:23;2.40;;;1.47;;
11228;SDS011;5671;47.936;8.716;2022-09-09T05:55:57;5.50;;;1.33;;
11228;SDS011;5671;47.936;8.716;2022-09-09T05:58:25;3.13;;;1.60;;
11228;SDS011;5671;47.936;8.716;2022-09-09T06:00:52;1.93;;;1.27;;
11228;SDS011;5671;47.936;8.716;2022-09-09T06:03:26;2.87;;;1.47;;
11228;SDS011;5671;47.936;8.716;2022-09-09T06:05:56;5.77;;;1.80;;
11228;SDS011;5671;47.936;8.716;2022-09-09T06:08:24;2.87;;;1.00;;
11228;SDS011;5671;47.936;8.716;2022-09-09T06:10:53;1.97;;;1.50;;
11228;SDS011;5671;47.936;8.716;2022-09-09T06:13:21;3.20;;;1.50;;
11228;SDS011;5671;47.936;8.716;2022-09-09T06:15:49;2.27;;;1.43;;
11228;SDS011;5671;47.936;8.716;2022-09-09T06:18:17;3.33;;;1.40;;
11228;SDS011;5671;47.936;8.716;2022-09-09T06:20:52;4.13;;;1.47;;
11228;SDS011;5671;47.936;8.716;2022-09-09T06:23:20;1.50;;;1.10;;
11228;SDS011;5671;47.936;8.716;2022-09-09T06:25:47;2.70;;;1.30;;
11228;SDS011;5671;47.936;8.716;2022-09-09T06:28:16;2.57;;;1.40;;
11228;SDS011;5671;47.936;8.716;2022-09-09T06:30:44;4.30;;;1.40;;
11228;SDS011;5671;47.936;8.716;2022-09-09T06:33:12;3.13;;;2.00;;
11228;SDS011;5671;47.936;8.716;2022-09-09T06:35:39;4.00;;;1.70;;
11228;SDS011;5671;47.936;8.716;2022-09-09T06:38:06;2.33;;;1.80;;
11228;SDS011;5671;47.936;8.716;2022-09-09T06:40:33;4.33;;;1.47;;
11228;SDS011;5671;47.936;8.716;2022-09-09T06:43:00;3.67;;;1.77;;
11228;SDS011;5671;47.936;8.716;2022-09-09T06:45:29;2.70;;;1.60;;
11228;SDS011;5671;47.936;8.716;2022-09-09T06:47:56;3.73;;;1.67;;
11228;SDS011;5671;47.936;8.716;2022-09-09T06:50:23;2.80;;;1.53;;
11228;SDS011;5671;47.936;8.716;2022-09-09T06:52:50;3.40;;;1.50;;
11228;SDS011;5671;47.936;8.716;2022-09-09T06:55:17;3.70;;;1.90;;
11228;SDS011;5671;47.936;8.716;2022-09-09T06:57:45;5.10;;;3.30;;
11228;SDS011;5671;47.936;8.716;2022-09-09T07:00:13;6.77;;;3.50;;
11228;SDS011;5671;47.936;8.716;2022-09-09T07:02:42;9.13;;;6.50;;
11228;SDS011;5671;47.936;8.716;2022-09-09T07:05:09;6.80;;;3.80;;
11228;SDS011;5671;47.936;8.716;2022-09-09T07:07:36;4.53;;;2.47;;
11228;SDS011;5671;47.936;8.716;2022-09-09T07:10:05;4.23;;;2.60;;
11228;SDS011;5671;47.936;8.716;2022-09-09T07:12:35;3.67;;;2.10;;
11228;SDS011;5671;47.936;8.716;2022-09-09T07:15:02;3.10;;;2.33;;
11228;SDS011;5671;47.936;8.716;2022-09-09T07:17:30;3.73;;;2.13;;
11228;SDS011;5671;47.936;8.716;2022-09-09T07:20:09;4.40;;;1.80;;
11228;SDS011;5671;47.936;8.716;2022-09-09T07:22:39;4.63;;;1.90;;
11228;SDS011;5671;47.936;8.716;2022-09-09T07:25:07;2.40;;;1.37;;
11228;SDS011;5671;47.936;8.716;2022-09-09T07:27:36;4.07;;;1.80;;
11228;SDS011;5671;47.936;8.716;2022-09-09T07:30:04;3.93;;;1.60;;
11228;SDS011;5671;47.936;8.716;2022-09-09T07:32:40;2.33;;;1.10;;
11228;SDS011;5671;47.936;8.716;2022-09-09T07:35:08;4.13;;;1.50;;
11228;SDS011;5671;47.936;8.716;2022-09-09T07:37:36;3.07;;;1.20;;
11228;SDS011;5671;47.936;8.716;2022-09-09T07:40:03;2.53;;;1.40;;
11228;SDS011;5671;47.936;8.716;2022-09-09T07:42:31;4.53;;;1.30;;
11228;SDS011;5671;47.936;8.716;2022-09-09T07:44:58;5.60;;;1.63;;
11228;SDS011;5671;47.936;8.716;2022-09-09T07:47:25;2.83;;;1.30;;
11228;SDS011;5671;47.936;8.716;2022-09-09T07:49:52;4.30;;;1.70;;
11228;SDS011;5671;47.936;8.716;2022-09-09T07:52:21;4.70;;;1.53;;
11228;SDS011;5671;47.936;8.716;2022-09-09T07:54:47;6.33;;;2.07;;
11228;SDS011;5671;47.936;8.716;2022-09-09T07:57:14;2.77;;;1.40;;
11228;SDS011;5671;47.936;8.716;2022-09-09T07:59:41;3.73;;;1.53;;
11228;SDS011;5671;47.936;8.716;2022-09-09T08:02:08;4.93;;;1.77;;
11228;SDS011;5671;47.936;8.716;2022-09-09T08:04:36;3.97;;;1.37;;
11228;SDS011;5671;47.936;8.716;2022-09-09T08:07:03;3.43;;;1.40;;
11228;SDS011;5671;47.936;8.716;2022-09-09T08:09:31;1.97;;;1.10;;
11228;SDS011;5671;47.936;8.716;2022-09-09T08:11:58;5.03;;;1.83;;
11228;SDS011;5671;47.936;8.716;2022-09-09T08:14:26;4.93;;;1.40;;
11228;SDS011;5671;47.936;8.716;2022-09-09T08:16:53;2.57;;;1.10;;
11228;SDS011;5671;47.936;8.716;2022-09-09T08:19:21;3.43;;;1.30;;
11228;SDS011;5671;47.936;8.716;2022-09-09T08:21:48;4.10;;;1.73;;
11228;SDS011;5671;47.936;8.716;2022-09-09T08:24:15;2.27;;;1.50;;
11228;SDS011;5671;47.936;8.716;2022-09-09T08:26:47;3.00;;;1.30;;
11228;SDS011;5671;47.936;8.716;2022-09-09T08:29:15;3.87;;;1.70;;
11228;SDS011;5671;47.936;8.716;2022-09-09T08:31:43;4.83;;;1.23;;
11228;SDS011;5671;47.936;8.716;2022-09-09T08:34:14;3.80;;;1.40;;
11228;SDS011;5671;47.936;8.716;2022-09-09T08:36:43;2.00;;;1.30;;
11228;SDS011;5671;47.936;8.716;2022-09-09T08:39:14;3.33;;;1.30;;
11228;SDS011;5671;47.936;8.716;2022-09-09T08:41:52;6.57;;;1.27;;
11228;SDS011;5671;47.936;8.716;2022-09-09T08:44:48;4.53;;;1.60;;
11228;SDS011;5671;47.936;8.716;2022-09-09T08:47:37;1.40;;;1.03;;
11228;SDS011;5671;47.936;8.716;2022-09-09T08:50:13;3.07;;;1.53;;
11228;SDS011;5671;47.936;8.716;2022-09-09T08:52:49;4.63;;;1.23;;
11228;SDS011;5671;47.936;8.716;2022-09-09T08:55:22;3.67;;;1.30;;
11228;SDS011;5671;47.936;8.716;2022-09-09T08:57:55;2.83;;;1.20;;
11228;SDS011;5671;47.936;8.716;2022-09-09T09:00:27;4.47;;;1.33;;
11228;SDS011;5671;47.936;8.716;2022-09-09T09:03:02;3.50;;;1.70;;
11228;SDS011;5671;47.936;8.716;2022-09-09T09:05:41;5.63;;;1.37;;
11228;SDS011;5671;47.936;8.716;2022-09-09T09:08:16;2.67;;;1.10;;
11228;SDS011;5671;47.936;8.716;2022-09-09T09:11:10;5.67;;;1.57;;
11228;SDS011;5671;47.936;8.716;2022-09-09T09:13:42;3.63;;;1.30;;
11228;SDS011;5671;47.936;8.716;2022-09-09T09:16:19;1.83;;;1.20;;
11228;SDS011;5671;47.936;8.716;2022-09-09T09:19:03;1.53;;;0.93;;
11228;SDS011;5671;47.936;8.716;2022-09-09T09:21:34;4.07;;;1.20;;
11228;SDS011;5671;47.936;8.716;2022-09-09T09:24:07;2.73;;;1.40;;
11228;SDS011;5671;47.936;8.716;2022-09-09T09:26:43;2.70;;;1.17;;
11228;SDS011;5671;47.936;8.716;2022-09-09T09:29:12;4.23;;;1.43;;
11228;SDS011;5671;47.936;8.716;2022-09-09T09:31:42;2.23;;;1.20;;
11228;SDS011;5671;47.936;8.716;2022-09-09T09:34:13;2.93;;;1.17;;
11228;SDS011;5671;47.936;8.716;2022-09-09T09:36:41;3.60;;;1.00;;
11228;SDS011;5671;47.936;8.716;2022-09-09T09:39:21;4.03;;;1.50;;
11228;SDS011;5671;47.936;8.716;2022-09-09T09:41:50;2.87;;;1.27;;
11228;SDS011;5671;47.936;8.716;2022-09-09T09:44:23;2.73;;;1.20;;
11228;SDS011;5671;47.936;8.716;2022-09-09T09:46:52;2.60;;;1.30;;
11228;SDS011;5671;47.936;8.716;2022-09-09T09:49:26;4.30;;;1.40;;
11228;SDS011;5671;47.936;8.716;2022-09-09T09:51:53;3.57;;;1.30;;
11228;SDS011;5671;47.936;8.716;2022-09-09T09:54:27;2.13;;;0.87;;
11228;SDS011;5671;47.936;8.716;2022-09-09T09:57:08;3.57;;;1.07;;
11228;SDS011;5671;47.936;8.716;2022-09-09T09:59:43;1.90;;;1.07;;
11228;SDS011;5671;47.936;8.716;2022-09-09T10:05:45;4.53;;;1.27;;
11228;SDS011;5671;47.936;8.716;2022-09-09T10:08:44;6.87;;;1.40;;
11228;SDS011;5671;47.936;8.716;2022-09-09T10:11:25;4.07;;;1.00;;
11228;SDS011;5671;47.936;8.716;2022-09-09T10:14:21;1.77;;;0.80;;
11228;SDS011;5671;47.936;8.716;2022-09-09T10:17:06;3.50;;;1.20;;
11228;SDS011;5671;47.936;8.716;2022-09-09T10:20:00;5.70;;;1.17;;
11228;SDS011;5671;47.936;8.716;2022-09-09T10:23:14;3.33;;;1.20;;
11228;SDS011;5671;47.936;8.716;2022-09-09T10:26:28;1.13;;;0.87;;
11228;SDS011;5671;47.936;8.716;2022-09-09T10:35:58;1.63;;;1.10;;
11228;SDS011;5671;47.936;8.716;2022-09-09T10:38:34;3.20;;;1.33;;
11228;SDS011;5671;47.936;8.716;2022-09-09T10:44:40;1.70;;;0.77;;
11228;SDS011;5671;47.936;8.716;2022-09-09T10:47:46;3.27;;;0.90;;
11228;SDS011;5671;47.936;8.716;2022-09-09T10:50:50;2.60;;;1.00;;
11228;SDS011;5671;47.936;8.716;2022-09-09T10:54:12;3.17;;;0.93;;
11228;SDS011;5671;47.936;8.716;2022-09-09T11:04:01;4.87;;;1.03;;
11228;SDS011;5671;47.936;8.716;2022-09-09T11:09:54;3.13;;;1.20;;
11228;SDS011;5671;47.936;8.716;2022-09-09T11:12:48;4.50;;;1.23;;
11228;SDS011;5671;47.936;8.716;2022-09-09T11:15:36;1.93;;;1.13;;
11228;SDS011;5671;47.936;8.716;2022-09-09T11:18:10;1.97;;;0.97;;
11228;SDS011;5671;47.936;8.716;2022-09-09T11:21:38;4.57;;;1.00;;
11228;SDS011;5671;47.936;8.716;2022-09-09T11:32:01;5.70;;;1.10;;
11228;SDS011;5671;47.936;8.716;2022-09-09T11:35:03;2.00;;;1.10;;
11228;SDS011;5671;47.936;8.716;2022-09-09T11:41:02;3.13;;;1.37;;
11228;SDS011;5671;47.936;8.716;2022-09-09T11:43:39;2.10;;;1.17;;
11228;SDS011;5671;47.936;8.716;2022-09-09T11:48:36;2.13;;;0.90;;
11228;SDS011;5671;47.936;8.716;2022-09-09T11:50:46;1.57;;;0.80;;
11228;SDS011;5671;47.936;8.716;2022-09-09T12:14:36;3.50;;;1.60;;
11228;SDS011;5671;47.936;8.716;2022-09-09T13:03:13;2.10;;;1.20;;
11228;SDS011;5671;47.936;8.716;2022-09-09T13:06:31;3.67;;;1.40;;
11228;SDS011;5671;47.936;8.716;2022-09-09T13:11:50;2.37;;;1.00;;
11228;SDS011;5671;47.936;8.716;2022-09-09T13:43:31;2.93;;;1.00;;
11228;SDS011;5671;47.936;8.716;2022-09-09T13:46:46;2.80;;;1.20;;
11228;SDS011;5671;47.936;8.716;2022-09-09T14:10:38;1.50;;;0.90;;
11228;SDS011;5671;47.936;8.716;2022-09-09T14:23:36;1.73;;;0.93;;
11228;SDS011;5671;47.936;8.716;2022-09-09T14:26:28;1.63;;;0.80;;
11228;SDS011;5671;47.936;8.716;2022-09-09T14:33:07;2.93;;;1.00;;
11228;SDS011;5671;47.936;8.716;2022-09-09T17:41:21;2.33;;;0.87;;
11228;SDS011;5671;47.936;8.716;2022-09-09T17:47:03;3.53;;;1.27;;
11228;SDS011;5671;47.936;8.716;2022-09-09T17:50:14;3.70;;;0.83;;
11228;SDS011;5671;47.936;8.716;2022-09-09T18:03:46;4.10;;;1.10;;
11228;SDS011;5671;47.936;8.716;2022-09-09T18:06:32;2.17;;;0.87;;
11228;SDS011;5671;47.936;8.716;2022-09-09T18:12:32;4.10;;;1.07;;
11228;SDS011;5671;47.936;8.716;2022-09-09T18:15:04;0.80;;;0.73;;
11228;SDS011;5671;47.936;8.716;2022-09-09T18:17:40;1.67;;;0.60;;
11228;SDS011;5671;47.936;8.716;2022-09-09T18:20:49;1.33;;;0.60;;
11228;SDS011;5671;47.936;8.716;2022-09-09T18:24:13;1.90;;;0.97;;
11228;SDS011;5671;47.936;8.716;2022-09-09T18:27:30;2.23;;;0.90;;
11228;SDS011;5671;47.936;8.716;2022-09-09T18:36:49;2.23;;;0.60;;
11228;SDS011;5671;47.936;8.716;2022-09-09T18:39:28;1.57;;;0.70;;
11228;SDS011;5671;47.936;8.716;2022-09-09T18:42:02;2.70;;;1.03;;
11228;SDS011;5671;47.936;8.716;2022-09-09T18:44:31;3.53;;;0.60;;
11228;SDS011;5671;47.936;8.716;2022-09-09T18:47:03;4.60;;;1.27;;
11228;SDS011;5671;47.936;8.716;2022-09-09T18:49:51;1.23;;;0.83;;
11228;SDS011;5671;47.936;8.716;2022-09-09T19:12:58;3.67;;;1.00;;
11228;SDS011;5671;47.936;8.716;2022-09-09T19:15:41;1.77;;;0.70;;
11228;SDS011;5671;47.936;8.716;2022-09-09T19:25:44;2.57;;;0.70;;
11228;SDS011;5671;47.936;8.716;2022-09-09T19:31:07;2.83;;;1.07;;
11228;SDS011;5671;47.936;8.716;2022-09-09T19:37:05;0.70;;;0.40;;
11228;SDS011;5671;47.936;8.716;2022-09-09T19:40:04;1.47;;;0.67;;
11228;SDS011;5671;47.936;8.716;2022-09-09T19:42:38;4.13;;;1.13;;
11228;SDS011;5671;47.936;8.716;2022-09-09T19:45:08;1.87;;;0.90;;
11228;SDS011;5671;47.936;8.716;2022-09-09T19:51:33;7.47;;;1.27;;
11228;SDS011;5671;47.936;8.716;2022-09-09T20:04:00;1.87;;;0.53;;
11228;SDS011;5671;47.936;8.716;2022-09-09T20:31:42;6.50;;;0.90;;
11228;SDS011;5671;47.936;8.716;2022-09-09T20:34:25;1.13;;;0.47;;
11228;SDS011;5671;47.936;8.716;2022-09-09T20:40:34;1.83;;;0.60;;
11228;SDS011;5671;47.936;8.716;2022-09-09T20:43:10;1.23;;;0.63;;
11228;SDS011;5671;47.936;8.716;2022-09-09T20:45:42;2.77;;;0.77;;
11228;SDS011;5671;47.936;8.716;2022-09-09T20:48:14;2.00;;;0.40;;
11228;SDS011;5671;47.936;8.716;2022-09-09T20:50:51;0.70;;;0.40;;
11228;SDS011;5671;47.936;8.716;2022-09-09T21:00:28;3.37;;;0.63;;
11228;SDS011;5671;47.936;8.716;2022-09-09T21:02:57;2.83;;;0.97;;
11228;SDS011;5671;47.936;8.716;2022-09-09T21:12:36;3.63;;;0.57;;
11228;SDS011;5671;47.936;8.716;2022-09-09T21:19:26;1.03;;;0.30;;
11228;SDS011;5671;47.936;8.716;2022-09-09T21:25:38;1.57;;;0.73;;
11228;SDS011;5671;47.936;8.716;2022-09-09T21:30:57;1.30;;;0.47;;
11228;SDS011;5671;47.936;8.716;2022-09-09T21:52:14;1.20;;;0.40;;
11228;SDS011;5671;47.936;8.716;2022-09-09T22:28:19;4.03;;;0.87;;
11228;SDS011;5671;47.936;8.716;2022-09-09T22:31:59;3.23;;;0.70;;
11228;SDS011;5671;47.936;8.716;2022-09-09T22:35:03;3.33;;;0.83;;
11228;SDS011;5671;47.936;8.716;2022-09-09T23:34:13;3.40;;;0.70;;
11228;SDS011;5671;47.936;8.716;2022-09-09T23:37:03;2.77;;;0.50;;
11228;SDS011;5671;47.936;8.716;2022-09-09T23:39:56;1.87;;;0.53;;
11228;SDS011;5671;47.936;8.716;2022-09-09T23:46:19;1.20;;;0.60;;
11228;SDS011;5671;47.936;8.716;2022-09-09T23:56:20;1.00;;;0.40;;
